createdAt,value
2019-01-11T00:01:51.267Z,3.00
2019-01-11T00:04:20.722Z,2.30
2019-01-11T00:06:50.270Z,2.30
2019-01-11T00:09:19.735Z,2.63
2019-01-11T00:11:49.209Z,2.47
2019-01-11T00:14:18.812Z,2.37
2019-01-11T00:17:07.528Z,2.30
2019-01-11T00:19:37.018Z,2.77
2019-01-11T00:22:06.936Z,2.80
2019-01-11T00:24:36.395Z,2.50
2019-01-11T00:27:06.082Z,2.93
2019-01-11T00:29:35.642Z,3.20
2019-01-11T00:32:05.363Z,2.90
2019-01-11T00:34:34.857Z,2.73
2019-01-11T00:37:04.848Z,3.03
2019-01-11T00:39:34.310Z,2.67
2019-01-11T00:42:03.977Z,2.90
2019-01-11T00:44:33.499Z,2.90
2019-01-11T00:47:03.103Z,3.30
2019-01-11T00:49:32.572Z,3.40
2019-01-11T00:52:02.020Z,4.20
2019-01-11T00:54:31.488Z,3.20
2019-01-11T00:57:00.940Z,4.07
2019-01-11T00:59:30.407Z,3.67
2019-01-11T01:02:00.125Z,3.30
2019-01-11T01:04:29.657Z,3.10
2019-01-11T01:06:59.269Z,3.10
2019-01-11T01:09:28.889Z,3.60
2019-01-11T01:11:58.439Z,3.03
2019-01-11T01:14:27.943Z,2.83
2019-01-11T01:16:58.451Z,3.03
2019-01-11T01:19:28.023Z,3.00
2019-01-11T01:21:57.497Z,3.07
2019-01-11T01:24:26.961Z,3.07
2019-01-11T01:26:56.462Z,3.70
2019-01-11T01:29:25.911Z,2.87
2019-01-11T01:31:55.368Z,3.53
2019-01-11T01:34:24.839Z,3.47
2019-01-11T01:36:54.424Z,3.50
2019-01-11T01:39:23.871Z,3.30
2019-01-11T01:41:53.330Z,3.73
2019-01-11T01:44:22.825Z,3.70
2019-01-11T01:46:52.378Z,3.17
2019-01-11T01:49:26.500Z,3.77
2019-01-11T01:51:53.120Z,3.33
2019-01-11T01:54:22.792Z,3.67
2019-01-11T01:56:52.322Z,3.80
2019-01-11T01:59:21.848Z,3.73
2019-01-11T02:01:51.312Z,3.33
2019-01-11T02:04:20.869Z,3.70
2019-01-11T02:06:50.515Z,4.20
2019-01-11T02:09:19.985Z,3.77
2019-01-11T02:11:49.462Z,4.10
2019-01-11T02:14:18.961Z,3.87
2019-01-11T02:16:48.694Z,3.90
2019-01-11T02:19:18.478Z,4.50
2019-01-11T02:21:47.984Z,4.43
2019-01-11T02:24:17.524Z,4.13
2019-01-11T02:26:47.095Z,6.97
2019-01-11T02:29:16.573Z,3.97
2019-01-11T02:31:46.019Z,4.63
2019-01-11T02:34:15.494Z,4.43
2019-01-11T02:36:44.983Z,4.47
2019-01-11T02:39:14.568Z,4.50
2019-01-11T02:41:44.002Z,4.27
2019-01-11T02:44:13.500Z,4.73
2019-01-11T02:46:42.954Z,4.60
2019-01-11T02:49:12.691Z,4.77
2019-01-11T02:51:42.156Z,5.50
2019-01-11T02:54:11.620Z,5.40
2019-01-11T02:56:41.099Z,5.13
2019-01-11T02:59:10.602Z,4.90
2019-01-11T03:01:40.088Z,5.90
2019-01-11T03:04:09.769Z,5.30
2019-01-11T03:06:39.309Z,5.90
2019-01-11T03:09:09.207Z,6.03
2019-01-11T03:11:38.724Z,6.43
2019-01-11T03:14:08.307Z,6.13
2019-01-11T03:16:37.897Z,6.40
2019-01-11T03:19:07.431Z,6.50
2019-01-11T03:21:36.941Z,6.73
2019-01-11T03:24:06.375Z,6.97
2019-01-11T03:26:35.869Z,6.37
2019-01-11T03:29:05.421Z,7.30
2019-01-11T03:31:35.632Z,7.20
2019-01-11T03:34:05.469Z,7.97
2019-01-11T03:36:34.927Z,8.40
2019-01-11T03:39:07.137Z,7.63
2019-01-11T03:41:46.030Z,8.80
2019-01-11T03:44:15.576Z,7.67
2019-01-11T03:46:45.094Z,8.37
2019-01-11T03:49:14.646Z,9.93
2019-01-11T03:51:44.231Z,8.60
2019-01-11T03:54:13.750Z,9.23
2019-01-11T03:56:43.331Z,9.43
2019-01-11T03:59:12.804Z,8.80
2019-01-11T04:01:42.268Z,9.30
2019-01-11T04:04:11.736Z,9.43
2019-01-11T04:06:42.038Z,10.37
2019-01-11T04:09:11.671Z,10.43
2019-01-11T04:11:41.289Z,9.70
2019-01-11T04:14:10.802Z,10.37
2019-01-11T04:16:40.272Z,10.50
2019-01-11T04:19:13.451Z,11.27
2019-01-11T04:21:51.222Z,10.60
2019-01-11T04:24:21.773Z,11.97
2019-01-11T04:26:51.428Z,11.40
2019-01-11T04:29:20.911Z,12.23
2019-01-11T04:31:50.417Z,11.13
2019-01-11T04:34:19.876Z,11.83
2019-01-11T04:36:49.505Z,12.77
2019-01-11T04:39:19.042Z,11.10
2019-01-11T04:41:48.536Z,11.90
2019-01-11T04:44:18.028Z,12.77
2019-01-11T04:46:47.613Z,11.73
2019-01-11T04:49:17.176Z,12.87
2019-01-11T04:51:46.721Z,12.80
2019-01-11T04:54:16.285Z,12.70
2019-01-11T04:56:45.769Z,12.67
2019-01-11T04:59:15.285Z,13.30
2019-01-11T05:01:44.983Z,12.80
2019-01-11T05:04:14.495Z,13.57
2019-01-11T05:06:43.961Z,13.83
2019-01-11T05:09:13.521Z,12.73
2019-01-11T05:11:43.005Z,14.00
2019-01-11T05:14:12.595Z,13.53
2019-01-11T05:16:42.153Z,14.63
2019-01-11T05:19:11.647Z,13.17
2019-01-11T05:21:41.129Z,13.30
2019-01-11T05:24:10.605Z,14.87
2019-01-11T05:26:40.172Z,13.67
2019-01-11T05:29:09.639Z,14.13
2019-01-11T05:31:39.149Z,14.10
2019-01-11T05:34:08.614Z,14.07
2019-01-11T05:36:38.117Z,15.37
2019-01-11T05:39:08.760Z,14.83
2019-01-11T05:41:38.250Z,14.90
2019-01-11T05:44:07.880Z,14.50
2019-01-11T05:46:37.359Z,14.57
2019-01-11T05:49:06.814Z,14.60
2019-01-11T05:51:36.372Z,14.73
2019-01-11T05:54:06.086Z,15.20
2019-01-11T05:56:35.562Z,15.27
2019-01-11T05:59:07.037Z,16.00
2019-01-11T06:01:36.592Z,15.13
2019-01-11T06:04:24.361Z,17.10
2019-01-11T06:07:09.311Z,16.80
2019-01-11T06:09:38.921Z,16.33
2019-01-11T06:12:08.516Z,17.20
2019-01-11T06:14:37.990Z,17.13
2019-01-11T06:17:07.623Z,16.30
2019-01-11T06:19:37.114Z,17.40
2019-01-11T06:22:06.685Z,17.10
2019-01-11T06:24:36.225Z,16.73
2019-01-11T06:27:06.068Z,17.47
2019-01-11T06:29:35.531Z,16.50
2019-01-11T06:32:05.257Z,16.37
2019-01-11T06:34:34.736Z,16.83
2019-01-11T06:37:04.531Z,16.30
2019-01-11T06:39:34.021Z,17.50
2019-01-11T06:42:11.281Z,16.87
2019-01-11T06:44:40.809Z,15.10
2019-01-11T06:47:10.325Z,15.93
2019-01-11T06:49:40.067Z,16.17
2019-01-11T06:52:09.761Z,15.77
2019-01-11T06:54:39.287Z,15.23
2019-01-11T06:57:08.924Z,14.57
2019-01-11T06:59:38.501Z,16.27
2019-01-11T07:02:08.073Z,14.17
2019-01-11T07:04:37.565Z,14.67
2019-01-11T07:07:07.083Z,14.50
2019-01-11T07:09:36.632Z,14.50
2019-01-11T07:12:06.177Z,14.73
2019-01-11T07:14:36.292Z,15.70
2019-01-11T07:17:06.534Z,14.53
2019-01-11T07:19:36.007Z,15.43
2019-01-11T07:22:05.597Z,14.97
2019-01-11T07:24:35.763Z,15.13
2019-01-11T07:27:05.357Z,14.13
2019-01-11T07:29:34.954Z,14.67
2019-01-11T07:32:04.594Z,14.43
2019-01-11T07:34:34.073Z,14.63
2019-01-11T07:37:04.510Z,15.70
2019-01-11T07:39:34.790Z,14.50
2019-01-11T07:42:04.800Z,14.53
2019-01-11T07:44:34.388Z,14.10
2019-01-11T07:47:04.090Z,16.00
2019-01-11T07:49:33.552Z,15.30
2019-01-11T07:52:03.125Z,15.63
2019-01-11T07:54:32.598Z,15.77
2019-01-11T07:57:02.092Z,15.87
2019-01-11T07:59:31.664Z,17.43
2019-01-11T08:02:01.210Z,15.87
2019-01-11T08:04:30.812Z,16.07
2019-01-11T08:07:00.384Z,15.50
2019-01-11T08:09:29.888Z,16.00
2019-01-11T08:11:59.410Z,15.50
2019-01-11T08:14:28.877Z,15.40
2019-01-11T08:16:58.440Z,14.57
2019-01-11T08:19:27.896Z,13.13
2019-01-11T08:21:57.448Z,15.70
2019-01-11T08:24:26.901Z,14.87
2019-01-11T08:26:56.464Z,14.67
2019-01-11T08:29:26.002Z,13.57
2019-01-11T08:31:55.743Z,12.67
2019-01-11T08:34:25.191Z,13.00
2019-01-11T08:36:54.696Z,13.13
2019-01-11T08:39:24.229Z,13.13
2019-01-11T08:41:53.739Z,12.23
2019-01-11T08:44:23.318Z,11.87
2019-01-11T08:46:52.948Z,11.60
2019-01-11T08:49:22.415Z,11.83
2019-01-11T08:51:51.912Z,12.53
2019-01-11T08:54:21.455Z,12.10
2019-01-11T08:56:50.931Z,10.70
2019-01-11T08:59:20.437Z,11.00
2019-01-11T09:01:49.897Z,11.03
2019-01-11T09:04:19.388Z,10.13
2019-01-11T09:06:49.031Z,10.47
2019-01-11T09:09:18.591Z,11.60
2019-01-11T09:11:48.075Z,10.80
2019-01-11T09:14:48.915Z,10.47
2019-01-11T09:17:19.302Z,11.47
2019-01-11T09:19:48.872Z,10.17
2019-01-11T09:22:18.545Z,10.37
2019-01-11T09:24:48.068Z,10.53
2019-01-11T09:27:17.540Z,10.70
2019-01-11T09:29:47.166Z,10.03
2019-01-11T09:32:16.632Z,10.27
2019-01-11T09:34:46.112Z,10.17
2019-01-11T09:37:15.568Z,10.73
2019-01-11T09:39:45.135Z,10.00
2019-01-11T09:42:14.822Z,10.93
2019-01-11T09:44:44.302Z,10.13
2019-01-11T09:47:13.944Z,10.13
2019-01-11T09:49:43.560Z,10.70
2019-01-11T09:52:13.180Z,10.00
2019-01-11T09:54:44.447Z,11.43
2019-01-11T09:57:13.977Z,10.33
2019-01-11T09:59:43.577Z,10.23
2019-01-11T10:02:35.338Z,10.63
2019-01-11T10:05:06.916Z,10.57
2019-01-11T10:07:48.556Z,10.03
2019-01-11T10:10:18.093Z,10.80
2019-01-11T10:12:48.559Z,10.27
2019-01-11T10:15:18.324Z,11.00
2019-01-11T10:17:49.667Z,11.33
2019-01-11T10:20:19.420Z,11.83
2019-01-11T10:22:49.058Z,11.23
2019-01-11T10:25:18.808Z,10.60
2019-01-11T10:27:48.337Z,11.67
2019-01-11T10:30:19.159Z,10.80
2019-01-11T10:32:48.773Z,11.53
2019-01-11T10:35:18.585Z,11.10
2019-01-11T10:37:48.178Z,10.70
2019-01-11T10:40:18.332Z,10.83
2019-01-11T10:42:48.201Z,10.93
2019-01-11T10:45:22.499Z,11.50
2019-01-11T10:47:55.199Z,11.90
2019-01-11T10:50:24.705Z,11.53
2019-01-11T10:52:54.189Z,12.70
2019-01-11T10:55:24.252Z,13.00
2019-01-11T10:57:53.846Z,12.97
2019-01-11T11:00:25.620Z,12.50
2019-01-11T11:02:56.071Z,12.70
2019-01-11T11:05:25.735Z,12.43
2019-01-11T11:07:55.323Z,12.20
2019-01-11T11:10:24.916Z,12.37
2019-01-11T11:12:54.386Z,12.23
2019-01-11T11:15:24.142Z,12.47
2019-01-11T11:17:53.750Z,12.83
2019-01-11T11:20:23.271Z,12.07
2019-01-11T11:22:53.671Z,12.53
2019-01-11T11:25:23.372Z,11.50
2019-01-11T11:27:52.922Z,10.90
2019-01-11T11:30:22.716Z,10.87
2019-01-11T11:33:02.546Z,11.33
2019-01-11T11:35:33.030Z,11.13
2019-01-11T11:38:02.864Z,10.63
2019-01-11T11:40:33.075Z,10.80
2019-01-11T11:43:02.682Z,10.87
2019-01-11T11:45:32.678Z,10.40
2019-01-11T11:48:03.750Z,10.63
2019-01-11T11:50:33.485Z,11.37
2019-01-11T11:53:03.044Z,9.93
2019-01-11T11:55:32.701Z,11.00
2019-01-11T11:58:02.171Z,9.90
2019-01-11T12:00:31.816Z,10.13
2019-01-11T12:03:01.328Z,9.47
2019-01-11T12:05:30.933Z,10.13
2019-01-11T12:08:00.485Z,10.00
2019-01-11T12:10:30.033Z,9.73
2019-01-11T12:12:59.613Z,9.33
2019-01-11T12:15:29.213Z,9.70
2019-01-11T12:17:58.739Z,10.33
2019-01-11T12:20:32.676Z,10.23
2019-01-11T12:23:02.426Z,10.27
2019-01-11T12:25:31.988Z,10.20
2019-01-11T12:28:01.535Z,9.63
2019-01-11T12:30:31.135Z,11.00
2019-01-11T12:33:00.821Z,10.40
2019-01-11T12:35:30.311Z,10.20
2019-01-11T12:37:59.755Z,11.27
2019-01-11T12:40:29.257Z,11.47
2019-01-11T12:42:58.798Z,10.47
2019-01-11T12:45:28.328Z,9.73
2019-01-11T12:47:57.876Z,9.87
2019-01-11T12:50:28.091Z,11.40
2019-01-11T12:52:57.714Z,9.63
2019-01-11T12:55:27.376Z,9.27
2019-01-11T12:57:56.889Z,8.47
2019-01-11T13:00:26.529Z,9.47
2019-01-11T13:02:56.071Z,9.60
2019-01-11T13:05:25.696Z,9.53
2019-01-11T13:07:55.246Z,11.17
2019-01-11T13:10:24.848Z,8.20
2019-01-11T13:12:54.518Z,10.47
2019-01-11T13:15:25.039Z,10.60
2019-01-11T13:17:54.566Z,10.47
2019-01-11T13:20:24.464Z,10.37
2019-01-11T13:22:54.194Z,11.07
2019-01-11T13:25:23.691Z,11.07
2019-01-11T13:27:53.211Z,10.13
2019-01-11T13:30:22.864Z,10.17
2019-01-11T13:32:52.460Z,11.97
2019-01-11T13:35:21.904Z,10.57
2019-01-11T13:37:51.488Z,11.50
2019-01-11T13:40:23.262Z,11.67
2019-01-11T13:42:53.111Z,11.07
2019-01-11T13:45:22.724Z,12.10
2019-01-11T13:47:52.406Z,11.23
2019-01-11T13:50:33.178Z,11.40
2019-01-11T13:53:03.112Z,11.47
2019-01-11T13:55:32.601Z,10.53
2019-01-11T13:58:02.139Z,11.13
2019-01-11T14:00:31.863Z,13.57
2019-01-11T14:03:01.428Z,11.40
2019-01-11T14:05:31.049Z,10.83
2019-01-11T14:08:00.533Z,11.33
2019-01-11T14:10:30.151Z,11.33
2019-01-11T14:12:59.723Z,11.50
2019-01-11T14:15:29.328Z,10.50
2019-01-11T14:17:58.881Z,11.07
2019-01-11T14:20:28.430Z,11.13
2019-01-11T14:22:57.980Z,11.90
2019-01-11T14:25:27.629Z,11.17
2019-01-11T14:27:57.257Z,10.30
2019-01-11T14:30:26.910Z,10.43
2019-01-11T14:32:56.615Z,11.37
2019-01-11T14:35:26.135Z,10.00
2019-01-11T14:37:55.735Z,10.77
2019-01-11T14:40:25.296Z,10.23
2019-01-11T14:42:54.868Z,9.37
2019-01-11T14:45:24.436Z,9.93
2019-01-11T14:47:53.970Z,9.10
2019-01-11T14:50:23.438Z,9.87
2019-01-11T14:52:52.992Z,9.40
2019-01-11T14:55:22.502Z,9.50
2019-01-11T14:57:52.266Z,8.83
2019-01-11T15:00:23.508Z,9.20
2019-01-11T15:02:53.146Z,8.67
2019-01-11T15:05:22.592Z,8.60
2019-01-11T15:07:52.074Z,8.27
2019-01-11T15:10:21.532Z,8.70
2019-01-11T15:12:51.175Z,7.77
2019-01-11T15:15:20.630Z,9.23
2019-01-11T15:17:50.100Z,8.53
2019-01-11T15:20:19.956Z,8.40
2019-01-11T15:22:49.464Z,8.93
2019-01-11T15:25:19.092Z,9.73
2019-01-11T15:27:48.575Z,9.00
2019-01-11T15:30:19.698Z,9.53
2019-01-11T15:32:49.412Z,8.87
2019-01-11T15:35:19.562Z,8.93
2019-01-11T15:37:49.195Z,8.50
2019-01-11T15:40:23.978Z,9.17
2019-01-11T15:42:53.481Z,9.00
2019-01-11T15:45:23.060Z,9.10
2019-01-11T15:47:52.829Z,9.30
2019-01-11T15:50:59.907Z,9.63
2019-01-11T15:53:38.864Z,9.40
2019-01-11T15:56:10.443Z,10.40
2019-01-11T15:58:40.059Z,11.10
2019-01-11T16:01:09.635Z,11.87
2019-01-11T16:03:39.122Z,11.20
2019-01-11T16:06:32.500Z,10.20
2019-01-11T16:09:57.559Z,11.07
2019-01-11T16:12:35.837Z,11.23
2019-01-11T16:15:28.622Z,11.00
2019-01-11T16:18:01.159Z,10.80
2019-01-11T16:20:30.647Z,11.23
2019-01-11T16:23:00.279Z,10.83
2019-01-11T16:25:29.979Z,11.43
2019-01-11T16:27:59.788Z,11.27
2019-01-11T16:30:29.330Z,10.90
2019-01-11T16:32:58.910Z,10.60
2019-01-11T16:35:28.525Z,9.47
2019-01-11T16:37:58.119Z,10.80
2019-01-11T16:40:27.684Z,11.57
2019-01-11T16:42:57.204Z,9.83
2019-01-11T16:45:26.707Z,10.33
2019-01-11T16:47:56.304Z,9.80
2019-01-11T16:50:25.866Z,9.83
2019-01-11T16:52:55.373Z,10.30
2019-01-11T16:55:24.901Z,10.03
2019-01-11T16:57:54.396Z,9.70
2019-01-11T17:00:23.925Z,9.70
2019-01-11T17:02:54.462Z,10.80
2019-01-11T17:05:24.072Z,11.30
2019-01-11T17:07:53.652Z,10.50
2019-01-11T17:10:23.226Z,10.73
2019-01-11T17:12:52.810Z,11.57
2019-01-11T17:15:22.500Z,10.77
2019-01-11T17:17:52.149Z,10.17
2019-01-11T17:20:21.758Z,10.57
2019-01-11T17:22:53.236Z,11.37
2019-01-11T17:25:22.462Z,11.77
2019-01-11T17:27:51.939Z,12.23
2019-01-11T17:30:21.451Z,11.60
2019-01-11T17:32:50.919Z,11.20
2019-01-11T17:35:20.563Z,12.47
2019-01-11T17:37:50.121Z,12.40
2019-01-11T17:40:19.677Z,11.87
2019-01-11T17:42:49.233Z,12.07
2019-01-11T17:45:18.881Z,11.70
2019-01-11T17:47:48.356Z,11.93
2019-01-11T17:50:18.897Z,12.13
2019-01-11T17:52:48.508Z,12.60
2019-01-11T17:55:18.188Z,12.23
2019-01-11T17:57:47.799Z,12.77
2019-01-11T18:00:18.429Z,11.20
2019-01-11T18:02:47.934Z,11.07
2019-01-11T18:05:17.719Z,12.13
2019-01-11T18:07:47.363Z,11.33
2019-01-11T18:10:17.030Z,11.93
2019-01-11T18:12:46.626Z,11.23
2019-01-11T18:15:19.332Z,12.13
2019-01-11T18:17:48.939Z,11.80
2019-01-11T18:20:23.850Z,9.97
2019-01-11T18:22:53.394Z,10.67
2019-01-11T18:25:22.891Z,10.40
2019-01-11T18:27:52.404Z,10.60
2019-01-11T18:30:21.947Z,10.40
2019-01-11T18:32:51.484Z,10.13
2019-01-11T18:35:21.016Z,9.93
2019-01-11T18:37:50.561Z,9.67
2019-01-11T18:40:22.609Z,10.40
2019-01-11T18:42:52.313Z,9.77
2019-01-11T18:45:28.364Z,9.40
2019-01-11T18:47:53.169Z,9.37
2019-01-11T18:50:23.434Z,9.00
2019-01-11T18:52:53.008Z,8.30
2019-01-11T18:55:22.552Z,8.43
2019-01-11T18:57:52.034Z,8.70
2019-01-11T19:00:22.974Z,8.50
2019-01-11T19:02:52.521Z,7.70
2019-01-11T19:05:22.071Z,8.27
2019-01-11T19:07:51.783Z,8.50
2019-01-11T19:10:33.982Z,7.20
2019-01-11T19:13:03.483Z,13.27
2019-01-11T19:15:32.983Z,7.30
2019-01-11T19:18:02.533Z,6.57
2019-01-11T19:20:32.335Z,5.40
2019-01-11T19:23:02.854Z,6.33
2019-01-11T19:25:32.428Z,5.47
2019-01-11T19:28:02.005Z,5.10
2019-01-11T19:30:31.724Z,5.70
2019-01-11T19:33:01.310Z,5.00
2019-01-11T19:35:30.898Z,5.37
2019-01-11T19:38:00.405Z,4.83
2019-01-11T19:40:30.033Z,4.63
2019-01-11T19:42:59.557Z,4.73
2019-01-11T19:45:29.192Z,4.43
2019-01-11T19:47:58.831Z,4.23
2019-01-11T19:50:28.554Z,3.47
2019-01-11T19:52:58.082Z,3.67
2019-01-11T19:55:27.642Z,3.80
2019-01-11T19:57:57.143Z,3.57
2019-01-11T20:00:28.819Z,4.27
2019-01-11T20:02:58.712Z,4.00
2019-01-11T20:05:28.790Z,4.47
2019-01-11T20:07:58.580Z,4.53
2019-01-11T20:10:32.598Z,3.57
2019-01-11T20:13:02.410Z,3.80
2019-01-11T20:15:32.330Z,3.57
2019-01-11T20:18:02.184Z,3.93
2019-01-11T20:20:31.754Z,4.43
2019-01-11T20:23:02.331Z,3.90
2019-01-11T20:25:32.346Z,3.53
2019-01-11T20:28:01.964Z,4.53
2019-01-11T20:30:31.541Z,5.30
2019-01-11T20:33:00.992Z,3.67
2019-01-11T20:35:30.551Z,3.93
2019-01-11T20:38:00.178Z,3.80
2019-01-11T20:40:29.698Z,3.87
2019-01-11T20:42:59.172Z,3.80
2019-01-11T20:45:28.713Z,4.33
2019-01-11T20:47:58.201Z,4.13
2019-01-11T20:50:27.780Z,4.20
2019-01-11T20:52:57.505Z,3.93
2019-01-11T20:55:27.387Z,3.50
2019-01-11T20:57:57.173Z,4.40
2019-01-11T21:00:32.531Z,4.07
2019-01-11T21:03:02.957Z,3.63
2019-01-11T21:05:32.727Z,3.80
2019-01-11T21:08:02.241Z,3.77
2019-01-11T21:10:32.004Z,3.63
2019-01-11T21:13:01.633Z,4.23
2019-01-11T21:15:31.124Z,3.97
2019-01-11T21:18:00.723Z,4.63
2019-01-11T21:20:30.276Z,3.83
2019-01-11T21:22:59.742Z,4.07
2019-01-11T21:25:29.369Z,3.17
2019-01-11T21:27:58.830Z,4.07
2019-01-11T21:30:30.393Z,4.33
2019-01-11T21:33:00.179Z,4.20
2019-01-11T21:35:30.172Z,4.00
2019-01-11T21:37:59.715Z,4.70
2019-01-11T21:40:29.196Z,4.37
2019-01-11T21:42:58.778Z,3.90
2019-01-11T21:45:28.362Z,4.43
2019-01-11T21:47:57.984Z,4.20
2019-01-11T21:50:29.141Z,4.37
2019-01-11T21:52:58.948Z,4.97
2019-01-11T21:55:28.629Z,4.63
2019-01-11T21:57:58.286Z,4.87
2019-01-11T22:00:33.890Z,5.87
2019-01-11T22:03:03.431Z,5.07
2019-01-11T22:05:32.952Z,4.87
2019-01-11T22:08:02.480Z,5.73
2019-01-11T22:10:31.965Z,5.13
2019-01-11T22:13:01.494Z,4.70
2019-01-11T22:15:30.970Z,5.40
2019-01-11T22:18:00.420Z,4.83
2019-01-11T22:20:29.976Z,4.17
2019-01-11T22:22:59.468Z,5.23
2019-01-11T22:25:28.924Z,5.13
2019-01-11T22:27:58.389Z,5.53
2019-01-11T22:30:30.537Z,5.43
2019-01-11T22:32:59.133Z,4.97
2019-01-11T22:35:28.699Z,5.17
2019-01-11T22:37:58.179Z,6.00
2019-01-11T22:40:27.723Z,6.10
2019-01-11T22:43:00.594Z,6.70
2019-01-11T22:45:30.228Z,5.30
2019-01-11T22:47:59.721Z,4.63
2019-01-11T22:50:29.263Z,5.10
2019-01-11T22:52:58.808Z,5.23
2019-01-11T22:55:28.389Z,5.20
2019-01-11T22:57:57.869Z,4.67
2019-01-11T23:00:36.467Z,5.33
2019-01-11T23:03:09.811Z,4.73
2019-01-11T23:05:39.369Z,5.17
2019-01-11T23:08:12.253Z,5.13
2019-01-11T23:10:53.515Z,6.57
2019-01-11T23:13:23.035Z,4.87
2019-01-11T23:15:56.298Z,5.87
2019-01-11T23:18:27.504Z,6.30
2019-01-11T23:21:00.144Z,5.70
2019-01-11T23:23:29.691Z,5.13
2019-01-11T23:25:59.244Z,6.17
2019-01-11T23:28:28.724Z,5.83
2019-01-11T23:30:58.345Z,6.63
2019-01-11T23:33:27.820Z,5.70
2019-01-11T23:35:57.308Z,6.07
2019-01-11T23:38:26.840Z,6.60
2019-01-11T23:40:56.446Z,6.67
2019-01-11T23:43:25.994Z,5.63
2019-01-11T23:45:55.558Z,6.03
2019-01-11T23:48:25.010Z,6.53
2019-01-11T23:50:55.343Z,5.37
2019-01-11T23:53:24.838Z,5.77
2019-01-11T23:55:54.402Z,7.33
2019-01-11T23:58:24.010Z,5.83
